createdAt,value
2024-01-14T00:02:40.502Z,14.00
2024-01-14T00:05:43.408Z,18.00
2024-01-14T00:08:46.486Z,18.00
2024-01-14T00:11:50.454Z,16.00
2024-01-14T00:14:53.391Z,9.00
2024-01-14T00:17:56.147Z,18.00
2024-01-14T00:20:59.214Z,18.67
2024-01-14T00:24:01.868Z,16.00
2024-01-14T00:27:05.140Z,18.00
2024-01-14T00:30:08.467Z,12.00
2024-01-14T00:33:12.653Z,18.00
2024-01-14T00:36:15.292Z,13.67
2024-01-14T00:39:18.292Z,18.00
2024-01-14T00:42:21.015Z,14.33
2024-01-14T00:45:23.778Z,15.00
2024-01-14T00:48:26.323Z,17.33
2024-01-14T00:51:29.456Z,18.00
2024-01-14T00:54:32.272Z,15.67
2024-01-14T00:57:35.360Z,18.33
2024-01-14T01:00:38.166Z,15.33
2024-01-14T01:03:41.172Z,18.00
2024-01-14T01:06:43.919Z,15.67
2024-01-14T01:09:46.802Z,16.00
2024-01-14T01:12:49.314Z,16.00
2024-01-14T01:15:52.181Z,15.00
2024-01-14T01:18:54.655Z,18.00
2024-01-14T01:21:57.516Z,18.00
2024-01-14T01:25:00.067Z,12.00
2024-01-14T01:28:03.341Z,14.33
2024-01-14T01:31:05.922Z,15.33
2024-01-14T01:34:11.266Z,16.67
2024-01-14T01:37:13.796Z,12.33
2024-01-14T01:40:16.590Z,15.33
2024-01-14T01:43:18.977Z,15.67
2024-01-14T01:46:22.215Z,15.00
2024-01-14T01:49:25.108Z,18.33
2024-01-14T01:52:28.175Z,15.00
2024-01-14T01:55:30.677Z,16.00
2024-01-14T01:58:33.631Z,16.00
2024-01-14T02:01:36.089Z,14.33
2024-01-14T02:04:39.337Z,13.00
2024-01-14T02:07:41.841Z,15.00
2024-01-14T02:10:44.816Z,16.00
2024-01-14T02:13:47.747Z,12.00
2024-01-14T02:16:50.543Z,15.67
2024-01-14T02:19:53.042Z,13.00
2024-01-14T02:22:56.906Z,16.00
2024-01-14T02:25:59.416Z,12.67
2024-01-14T02:29:04.595Z,15.33
2024-01-14T02:32:06.909Z,15.00
2024-01-14T02:35:10.006Z,15.00
2024-01-14T02:38:12.488Z,14.67
2024-01-14T02:41:15.799Z,12.67
2024-01-14T02:44:18.180Z,13.00
2024-01-14T02:47:21.022Z,13.00
2024-01-14T02:50:23.701Z,13.00
2024-01-14T02:53:26.391Z,15.00
2024-01-14T02:56:28.796Z,15.00
2024-01-14T02:59:34.273Z,13.67
2024-01-14T03:02:37.665Z,12.00
2024-01-14T03:05:40.343Z,12.00
2024-01-14T03:08:42.905Z,13.00
2024-01-14T03:11:45.668Z,15.00
2024-01-14T03:14:48.516Z,12.67
2024-01-14T03:17:51.488Z,14.33
2024-01-14T03:20:54.117Z,13.00
2024-01-14T03:23:57.078Z,15.00
2024-01-14T03:26:59.887Z,12.00
2024-01-14T03:30:04.021Z,12.67
2024-01-14T03:33:07.138Z,13.67
2024-01-14T03:36:14.601Z,10.00
2024-01-14T03:39:17.077Z,12.67
2024-01-14T03:42:19.904Z,16.00
2024-01-14T03:45:22.504Z,13.00
2024-01-14T03:48:25.538Z,12.00
2024-01-14T03:51:28.314Z,13.00
2024-01-14T03:54:31.367Z,10.00
2024-01-14T03:57:33.851Z,9.00
2024-01-14T04:00:36.951Z,10.67
2024-01-14T04:03:39.645Z,9.33
2024-01-14T04:06:42.683Z,10.00
2024-01-14T04:09:45.359Z,11.33
2024-01-14T04:12:48.406Z,9.33
2024-01-14T04:15:50.898Z,10.00
2024-01-14T04:18:53.876Z,10.00
2024-01-14T04:21:56.402Z,10.00
2024-01-14T04:24:59.247Z,10.67
2024-01-14T04:28:03.317Z,12.00
2024-01-14T04:31:06.289Z,9.67
2024-01-14T04:34:10.592Z,12.00
2024-01-14T04:37:13.686Z,10.00
2024-01-14T04:40:16.570Z,12.00
2024-01-14T04:43:19.394Z,9.00
2024-01-14T04:46:22.012Z,12.00
2024-01-14T04:49:25.204Z,7.00
2024-01-14T04:52:27.943Z,10.00
2024-01-14T04:55:30.797Z,11.33
2024-01-14T04:58:33.258Z,9.33
2024-01-14T05:01:36.082Z,9.33
2024-01-14T05:04:38.730Z,8.33
2024-01-14T05:07:41.759Z,10.00
2024-01-14T05:10:44.626Z,9.00
2024-01-14T05:13:47.798Z,9.33
2024-01-14T05:16:50.328Z,7.00
2024-01-14T05:19:53.430Z,7.00
2024-01-14T05:22:55.834Z,3.00
2024-01-14T05:25:58.929Z,6.00
2024-01-14T05:29:01.696Z,7.00
2024-01-14T05:32:04.821Z,9.33
2024-01-14T05:35:07.560Z,7.00
2024-01-14T05:38:10.435Z,6.00
2024-01-14T05:41:15.917Z,9.00
2024-01-14T05:44:18.887Z,8.33
2024-01-14T05:47:21.530Z,6.00
2024-01-14T05:50:24.386Z,7.67
2024-01-14T05:53:26.968Z,9.00
2024-01-14T05:56:29.752Z,8.33
2024-01-14T05:59:32.557Z,7.00
2024-01-14T06:02:35.576Z,9.33
2024-01-14T06:05:38.321Z,9.00
2024-01-14T06:08:43.987Z,7.00
2024-01-14T06:11:46.625Z,9.00
2024-01-14T06:14:49.649Z,9.33
2024-01-14T06:17:52.351Z,9.67
2024-01-14T06:20:57.469Z,11.33
2024-01-14T06:23:59.968Z,10.00
2024-01-14T06:27:04.021Z,12.00
2024-01-14T06:30:07.067Z,9.00
2024-01-14T06:33:10.965Z,7.67
2024-01-14T06:36:14.201Z,9.00
2024-01-14T06:39:17.038Z,10.00
2024-01-14T06:42:19.771Z,8.33
2024-01-14T06:45:22.645Z,10.00
2024-01-14T06:48:25.903Z,7.00
2024-01-14T06:51:29.375Z,7.00
2024-01-14T06:54:32.069Z,7.00
2024-01-14T06:57:35.153Z,6.00
2024-01-14T07:00:37.910Z,7.00
2024-01-14T07:03:41.094Z,6.00
2024-01-14T07:06:43.926Z,6.33
2024-01-14T07:09:47.020Z,8.33
2024-01-14T07:12:49.668Z,6.00
2024-01-14T07:15:52.784Z,7.00
2024-01-14T07:18:55.656Z,7.00
2024-01-14T07:21:58.704Z,7.00
2024-01-14T07:25:01.268Z,7.67
2024-01-14T07:28:04.381Z,7.00
2024-01-14T07:31:07.092Z,6.00
2024-01-14T07:34:12.265Z,6.00
2024-01-14T07:37:15.180Z,6.33
2024-01-14T07:40:18.024Z,6.00
2024-01-14T07:43:20.740Z,8.33
2024-01-14T07:46:23.524Z,8.33
2024-01-14T07:49:26.085Z,7.67
2024-01-14T07:52:29.169Z,9.33
2024-01-14T07:55:31.938Z,9.00
2024-01-14T07:58:34.723Z,6.00
2024-01-14T08:01:37.284Z,6.67
2024-01-14T08:04:40.263Z,6.00
2024-01-14T08:07:42.805Z,7.00
2024-01-14T08:10:45.927Z,7.00
2024-01-14T08:13:48.659Z,6.00
2024-01-14T08:16:51.480Z,9.00
2024-01-14T08:19:54.221Z,7.00
2024-01-14T08:22:57.079Z,12.00
2024-01-14T08:25:59.475Z,12.00
2024-01-14T08:29:10.414Z,11.67
2024-01-14T08:32:17.030Z,12.00
2024-01-14T08:35:20.153Z,8.33
2024-01-14T08:38:23.343Z,7.00
2024-01-14T08:41:27.689Z,7.00
2024-01-14T08:44:30.647Z,6.00
2024-01-14T08:47:33.622Z,7.00
2024-01-14T08:50:36.180Z,7.67
2024-01-14T08:53:39.254Z,6.67
2024-01-14T08:56:41.748Z,4.00
2024-01-14T08:59:44.534Z,6.33
2024-01-14T09:02:46.974Z,6.00
2024-01-14T09:05:50.071Z,6.00
2024-01-14T09:08:52.964Z,7.00
2024-01-14T09:11:56.412Z,8.33
2024-01-14T09:14:58.906Z,7.00
2024-01-14T09:18:02.143Z,6.33
2024-01-14T09:21:05.421Z,6.00
2024-01-14T09:24:08.554Z,6.33
2024-01-14T09:27:11.848Z,6.00
2024-01-14T09:30:15.396Z,7.00
2024-01-14T09:33:18.929Z,7.00
2024-01-14T09:36:21.873Z,6.33
2024-01-14T09:39:24.701Z,7.00
2024-01-14T09:42:37.084Z,9.00
2024-01-14T09:45:47.059Z,7.00
2024-01-14T09:48:53.652Z,7.00
2024-01-14T09:51:57.250Z,6.00
2024-01-14T09:55:00.665Z,7.00
2024-01-14T09:58:03.890Z,7.00
2024-01-14T10:01:10.248Z,7.00
2024-01-14T10:04:14.878Z,9.00
2024-01-14T10:07:18.699Z,4.00
2024-01-14T10:10:21.583Z,7.00
2024-01-14T10:13:24.541Z,7.67
2024-01-14T10:16:51.058Z,6.00
2024-01-14T10:19:57.304Z,7.67
2024-01-14T10:23:00.242Z,6.67
2024-01-14T10:26:03.280Z,9.00
2024-01-14T10:29:06.045Z,7.00
2024-01-14T10:32:09.837Z,9.00
2024-01-14T10:35:15.908Z,6.00
2024-01-14T10:38:23.167Z,9.00
2024-01-14T10:41:26.062Z,6.00
2024-01-14T10:44:29.768Z,7.00
2024-01-14T10:47:35.919Z,9.33
2024-01-14T10:50:45.496Z,2.33
2024-01-14T10:54:06.797Z,9.00
2024-01-14T10:57:34.125Z,9.00
2024-01-14T11:00:38.116Z,9.67
2024-01-14T11:03:41.797Z,9.67
2024-01-14T11:06:47.156Z,10.00
2024-01-14T11:09:52.877Z,8.33
2024-01-14T11:13:11.099Z,7.67
2024-01-14T11:16:23.104Z,7.00
2024-01-14T11:19:33.766Z,7.00
2024-01-14T11:22:45.427Z,7.00
2024-01-14T11:25:56.583Z,8.33
2024-01-14T11:29:02.281Z,7.00
2024-01-14T11:32:04.766Z,4.00
2024-01-14T11:35:08.726Z,7.00
2024-01-14T11:38:37.665Z,7.00
2024-01-14T11:41:44.690Z,7.00
2024-01-14T11:44:47.173Z,7.00
2024-01-14T11:47:55.018Z,9.00
2024-01-14T11:50:57.743Z,8.33
2024-01-14T11:54:10.786Z,7.00
2024-01-14T11:57:29.470Z,5.33
2024-01-14T12:00:37.107Z,7.00
2024-01-14T12:03:40.428Z,7.00
2024-01-14T12:06:47.835Z,7.67
2024-01-14T12:09:57.117Z,7.00
2024-01-14T12:13:04.237Z,7.67
2024-01-14T12:16:10.417Z,7.00
2024-01-14T12:19:14.970Z,9.00
2024-01-14T12:22:17.832Z,8.33
2024-01-14T12:25:25.762Z,9.00
2024-01-14T12:28:29.665Z,10.00
2024-01-14T12:31:46.107Z,10.00
2024-01-14T12:34:56.201Z,12.00
2024-01-14T12:37:58.798Z,10.67
2024-01-14T12:41:01.860Z,12.33
2024-01-14T12:44:04.395Z,9.33
2024-01-14T12:47:08.266Z,10.00
2024-01-14T12:50:17.037Z,12.00
2024-01-14T12:53:21.181Z,10.00
2024-01-14T12:56:25.421Z,10.00
2024-01-14T12:59:28.522Z,9.00
2024-01-14T13:02:35.018Z,9.67
2024-01-14T13:05:39.236Z,9.67
2024-01-14T13:08:41.930Z,9.00
2024-01-14T13:11:45.100Z,9.33
2024-01-14T13:14:48.332Z,10.00
2024-01-14T13:17:53.510Z,8.33
2024-01-14T13:20:57.053Z,8.33
2024-01-14T13:24:09.294Z,7.67
2024-01-14T13:27:15.814Z,9.00
2024-01-14T13:30:19.851Z,7.00
2024-01-14T13:33:22.420Z,7.00
2024-01-14T13:36:25.381Z,9.00
2024-01-14T13:39:28.351Z,7.00
2024-01-14T13:42:31.732Z,7.00
2024-01-14T13:45:34.593Z,6.33
2024-01-14T13:48:37.610Z,6.33
2024-01-14T13:51:40.980Z,6.67
2024-01-14T13:54:44.890Z,7.00
2024-01-14T13:57:49.750Z,9.00
2024-01-14T14:00:53.198Z,7.67
2024-01-14T14:03:55.781Z,9.00
2024-01-14T14:06:59.697Z,8.33
2024-01-14T14:10:02.629Z,9.00
2024-01-14T14:13:05.858Z,7.00
2024-01-14T14:16:11.620Z,7.00
2024-01-14T14:19:19.242Z,10.00
2024-01-14T14:22:22.106Z,10.00
2024-01-14T14:25:25.085Z,10.00
2024-01-14T14:28:27.819Z,11.33
2024-01-14T14:31:43.535Z,7.00
2024-01-14T14:34:51.616Z,9.00
2024-01-14T14:37:54.599Z,6.33
2024-01-14T14:40:57.440Z,10.00
2024-01-14T14:44:01.196Z,1.67
2024-01-14T14:47:04.981Z,4.00
2024-01-14T14:50:08.397Z,7.67
2024-01-14T14:53:11.509Z,9.67
2024-01-14T14:56:14.660Z,7.67
2024-01-14T14:59:19.796Z,9.00
2024-01-14T15:02:24.656Z,9.00
2024-01-14T15:05:27.159Z,0.00
2024-01-14T15:08:30.086Z,10.67
2024-01-14T15:11:37.948Z,10.00
2024-01-14T15:14:42.421Z,9.33
2024-01-14T15:17:45.689Z,8.33
2024-01-14T15:20:52.100Z,7.67
2024-01-14T15:23:55.179Z,9.00
2024-01-14T15:26:58.490Z,8.33
2024-01-14T15:30:01.276Z,9.00
2024-01-14T15:33:06.501Z,8.33
2024-01-14T15:36:10.139Z,9.00
2024-01-14T15:39:15.440Z,10.00
2024-01-14T15:42:22.775Z,9.00
2024-01-14T15:45:26.615Z,9.00
2024-01-14T15:48:30.852Z,6.67
2024-01-14T15:51:34.876Z,9.33
2024-01-14T15:54:37.965Z,11.33
2024-01-14T15:57:44.093Z,9.00
2024-01-14T16:01:00.123Z,10.00
2024-01-14T16:04:11.624Z,9.00
2024-01-14T16:07:14.920Z,7.67
2024-01-14T16:10:19.131Z,7.00
2024-01-14T16:13:21.925Z,9.00
2024-01-14T16:16:27.048Z,9.00
2024-01-14T16:19:31.648Z,10.00
2024-01-14T16:22:36.615Z,7.67
2024-01-14T16:25:39.828Z,6.33
2024-01-14T16:28:43.072Z,9.00
2024-01-14T16:31:45.753Z,9.00
2024-01-14T16:34:50.014Z,8.33
2024-01-14T16:37:56.113Z,12.33
2024-01-14T16:41:04.834Z,9.00
2024-01-14T16:44:25.716Z,9.67
2024-01-14T16:47:30.432Z,9.00
2024-01-14T16:50:35.119Z,12.00
2024-01-14T16:53:39.391Z,10.00
2024-01-14T16:56:42.230Z,8.33
2024-01-14T16:59:45.245Z,10.00
2024-01-14T17:02:48.065Z,9.00
2024-01-14T17:05:51.036Z,10.00
2024-01-14T17:08:53.497Z,10.00
2024-01-14T17:11:58.822Z,9.00
2024-01-14T17:15:01.814Z,6.00
2024-01-14T17:18:08.230Z,10.00
2024-01-14T17:21:11.164Z,10.00
2024-01-14T17:24:14.301Z,10.00
2024-01-14T17:27:17.782Z,10.00
2024-01-14T17:30:20.978Z,9.00
2024-01-14T17:33:23.930Z,9.00
2024-01-14T17:36:35.064Z,5.33
2024-01-14T17:39:39.261Z,7.00
2024-01-14T17:42:42.677Z,9.67
2024-01-14T17:45:58.385Z,8.33
2024-01-14T17:49:14.228Z,10.00
2024-01-14T17:52:17.447Z,4.00
2024-01-14T17:55:20.957Z,7.00
2024-01-14T17:58:24.458Z,8.33
2024-01-14T18:01:28.080Z,7.67
2024-01-14T18:04:31.412Z,9.00
2024-01-14T18:07:34.600Z,6.67
2024-01-14T18:10:42.043Z,8.33
2024-01-14T18:13:45.435Z,7.00
2024-01-14T18:16:48.574Z,6.00
2024-01-14T18:19:52.089Z,9.00
2024-01-14T18:23:06.072Z,5.33
2024-01-14T18:26:15.062Z,6.00
2024-01-14T18:29:19.856Z,6.00
2024-01-14T18:32:23.477Z,6.67
2024-01-14T18:35:26.541Z,6.00
2024-01-14T18:38:29.955Z,3.67
2024-01-14T18:41:33.024Z,7.67
2024-01-14T18:44:35.934Z,7.00
2024-01-14T18:47:39.515Z,10.00
2024-01-14T18:50:43.526Z,9.00
2024-01-14T18:53:46.483Z,9.67
2024-01-14T18:56:52.205Z,9.00
2024-01-14T18:59:55.675Z,7.67
2024-01-14T19:03:03.266Z,9.00
2024-01-14T19:06:11.516Z,9.00
2024-01-14T19:09:15.938Z,10.00
2024-01-14T19:12:21.348Z,9.67
2024-01-14T19:15:24.960Z,7.00
2024-01-14T19:18:28.644Z,9.00
2024-01-14T19:21:35.172Z,8.33
2024-01-14T19:24:43.457Z,10.00
2024-01-14T19:27:47.818Z,6.33
2024-01-14T19:30:51.462Z,10.67
2024-01-14T19:33:55.287Z,12.00
2024-01-14T19:36:58.737Z,10.00
2024-01-14T19:40:02.676Z,10.00
2024-01-14T19:43:05.651Z,10.00
2024-01-14T19:46:09.466Z,9.33
2024-01-14T19:49:13.193Z,10.00
2024-01-14T19:52:17.561Z,11.67
2024-01-14T19:55:21.393Z,9.00
2024-01-14T19:58:25.502Z,10.00
2024-01-14T20:01:28.291Z,13.67
2024-01-14T20:04:34.134Z,12.33
2024-01-14T20:07:37.558Z,11.33
2024-01-14T20:10:41.217Z,15.00
2024-01-14T20:13:44.084Z,13.67
2024-01-14T20:16:51.500Z,10.00
2024-01-14T20:19:55.535Z,13.67
2024-01-14T20:22:59.823Z,15.00
2024-01-14T20:26:03.836Z,15.33
2024-01-14T20:29:09.509Z,13.00
2024-01-14T20:32:12.725Z,15.00
2024-01-14T20:35:16.473Z,15.00
2024-01-14T20:38:20.469Z,17.33
2024-01-14T20:41:25.007Z,17.33
2024-01-14T20:44:28.225Z,9.00
2024-01-14T20:47:31.512Z,15.00
2024-01-14T20:50:34.964Z,15.67
2024-01-14T20:53:38.712Z,16.00
2024-01-14T20:56:41.466Z,13.67
2024-01-14T20:59:51.242Z,16.00
2024-01-14T21:02:53.988Z,16.00
2024-01-14T21:05:57.231Z,18.67
2024-01-14T21:08:59.813Z,15.33
2024-01-14T21:12:02.804Z,16.00
2024-01-14T21:15:07.695Z,13.00
2024-01-14T21:18:11.050Z,16.67
2024-01-14T21:21:14.290Z,16.67
2024-01-14T21:24:19.090Z,15.00
2024-01-14T21:27:22.115Z,16.00
2024-01-14T21:30:25.868Z,15.00
2024-01-14T21:33:29.597Z,16.00
2024-01-14T21:36:32.631Z,16.67
2024-01-14T21:39:35.643Z,15.00
2024-01-14T21:42:38.788Z,16.00
2024-01-14T21:45:41.436Z,15.00
2024-01-14T21:48:44.543Z,18.33
2024-01-14T21:51:47.207Z,16.00
2024-01-14T21:54:50.433Z,16.00
2024-01-14T21:57:53.125Z,6.00
2024-01-14T22:00:56.559Z,18.00
2024-01-14T22:03:59.332Z,16.00
2024-01-14T22:07:02.890Z,16.00
2024-01-14T22:10:05.650Z,15.33
2024-01-14T22:13:08.548Z,15.00
2024-01-14T22:16:11.181Z,12.00
2024-01-14T22:19:14.377Z,15.33
2024-01-14T22:22:17.215Z,6.67
2024-01-14T22:25:20.139Z,15.00
2024-01-14T22:28:24.395Z,15.33
2024-01-14T22:31:27.506Z,15.00
2024-01-14T22:34:30.291Z,9.00
2024-01-14T22:37:33.420Z,15.00
2024-01-14T22:40:36.045Z,15.00
2024-01-14T22:43:40.426Z,15.00
2024-01-14T22:46:42.938Z,13.00
2024-01-14T22:49:48.886Z,16.00
2024-01-14T22:52:51.634Z,15.00
2024-01-14T22:55:54.434Z,12.00
2024-01-14T22:58:57.013Z,8.33
2024-01-14T23:02:00.340Z,13.00
2024-01-14T23:05:02.939Z,18.00
2024-01-14T23:08:06.603Z,15.00
2024-01-14T23:11:09.099Z,13.00
2024-01-14T23:14:11.871Z,15.33
2024-01-14T23:17:14.326Z,10.67
2024-01-14T23:20:17.061Z,15.33
2024-01-14T23:23:19.687Z,13.00
2024-01-14T23:26:22.518Z,10.00
2024-01-14T23:29:24.990Z,13.67
2024-01-14T23:32:28.061Z,9.67
2024-01-14T23:35:30.514Z,9.00
2024-01-14T23:38:33.551Z,10.00
2024-01-14T23:41:36.093Z,13.00
2024-01-14T23:44:39.672Z,12.00
2024-01-14T23:47:42.232Z,15.00
2024-01-14T23:50:45.171Z,13.00
2024-01-14T23:53:47.831Z,13.00
2024-01-14T23:56:50.807Z,15.00
2024-01-14T23:59:53.328Z,13.00
